< < Back
Terminal Aerodrome Forecast


Current Version              Previous Versions:   1  2  3  4  5  6  7  8  9  

Terminal Aerodrome Forecast

302
FTUS42 KGSP 230540
TAFHKY
TAF
KHKY 230540Z 2306/2406 00000KT P6SM BKN050
     FM231200 00000KT P6SM OVC021
     FM231400 00000KT P6SM -RA OVC018
     FM231700 03004KT 3SM -RA BR OVC007
     FM232000 06005KT 2SM -SHRA BR OVC004
     FM240100 17007KT 3/4SM -SHRA BR OVC004
     FM240400 23007KT 2SM -SHRA BR OVC006=

Latest METAR

144
SAUS70 KWBC 230800 RRF
MTRHKY
METAR KHKY 230753Z AUTO 00000KT 10SM OVC042 06/M02 A3026 RMK AO2 SLP237
T00611017


USA.gov is the U.S. government's official web portal to all federal, state and local government web resources and services.